Time;durP1;ratioP1;P1;durP2;ratioP2;P2;SDS_P1;SDS_P2;PMS_P1;PMS_P2;Temp;Humidity;BMP_temperature;BMP_pressure;BME280_temperature;BME280_humidity;BME280_pressure;Samples;Min_cycle;Max_cycle;Signal;HPM_P1;HPM_P2
2024/01/09 00:01:32;;;;;;;3.80;1.20;;;6.70;9.40;;;;;;7397005;19;19935;-72
2024/01/09 00:03:58;;;;;;;4.03;1.50;;;6.70;9.30;;;;;;7398229;19;19923;-72
2024/01/09 00:06:24;;;;;;;5.93;1.80;;;6.70;9.60;;;;;;7395836;19;20333;-73
2024/01/09 00:08:50;;;;;;;5.75;1.52;;;6.70;10.10;;;;;;7402912;19;19950;-73
2024/01/09 00:11:15;;;;;;;3.80;1.67;;;6.70;10.60;;;;;;7402194;19;19930;-72
2024/01/09 00:13:42;;;;;;;3.65;1.40;;;6.80;11.10;;;;;;7403392;19;19969;-71
2024/01/09 00:16:08;;;;;;;4.95;1.70;;;6.80;11.10;;;;;;7394502;19;19929;-72
2024/01/09 00:18:33;;;;;;;7.03;1.67;;;6.80;11.00;;;;;;7402711;19;19976;-73
2024/01/09 00:20:59;;;;;;;6.05;1.60;;;6.80;11.10;;;;;;7398390;19;19922;-72
2024/01/09 00:23:25;;;;;;;5.30;1.52;;;6.70;11.60;;;;;;7397608;19;19919;-74
2024/01/09 00:25:51;;;;;;;4.22;1.67;;;6.70;11.50;;;;;;7401318;19;19929;-73
2024/01/09 00:28:17;;;;;;;4.03;1.52;;;6.70;11.90;;;;;;7393913;19;19942;-72
2024/01/09 00:30:42;;;;;;;4.30;1.40;;;6.70;11.90;;;;;;7405141;19;19929;-72
2024/01/09 00:33:08;;;;;;;3.63;1.60;;;6.80;12.10;;;;;;7395029;19;19946;-72
2024/01/09 00:35:34;;;;;;;5.05;1.70;;;6.80;11.90;;;;;;7403830;19;19946;-72
2024/01/09 00:38:00;;;;;;;4.45;1.85;;;6.80;12.20;;;;;;7400685;19;20049;-71
2024/01/09 00:40:25;;;;;;;4.18;1.70;;;6.80;12.30;;;;;;7401031;19;19914;-72
2024/01/09 00:42:51;;;;;;;4.28;1.60;;;6.90;12.60;;;;;;7402112;19;19931;-72
2024/01/09 00:45:17;;;;;;;4.95;1.60;;;6.90;13.10;;;;;;7400964;19;20313;-72
2024/01/09 00:47:43;;;;;;;5.15;1.80;;;6.90;13.10;;;;;;7403573;19;20755;-71
2024/01/09 00:50:09;;;;;;;4.95;1.63;;;6.80;13.00;;;;;;7398974;19;19926;-71
2024/01/09 00:52:35;;;;;;;5.85;1.65;;;6.80;12.90;;;;;;7403691;19;19930;-72
2024/01/09 00:55:00;;;;;;;3.60;1.33;;;6.90;12.70;;;;;;7403379;19;20335;-72
2024/01/09 00:57:26;;;;;;;3.53;1.48;;;6.90;12.40;;;;;;7399804;19;19914;-71
2024/01/09 00:59:52;;;;;;;10.13;1.60;;;6.90;12.60;;;;;;7401345;19;19923;-72
2024/01/09 01:02:18;;;;;;;5.65;1.40;;;6.90;13.10;;;;;;7401047;19;20328;-72
2024/01/09 01:04:43;;;;;;;3.85;1.63;;;6.90;13.40;;;;;;7401662;19;19926;-72
2024/01/09 01:07:10;;;;;;;4.88;1.77;;;6.90;13.40;;;;;;7402697;19;19931;-72
2024/01/09 01:09:35;;;;;;;3.85;1.35;;;6.90;14.10;;;;;;7404141;19;20351;-73
2024/01/09 01:12:01;;;;;;;4.68;1.60;;;6.90;14.40;;;;;;7402290;19;19918;-72
2024/01/09 01:14:27;;;;;;;5.68;1.42;;;6.90;14.60;;;;;;7400221;19;19914;-71
2024/01/09 01:16:53;;;;;;;3.80;1.65;;;6.90;15.10;;;;;;7397953;19;19982;-72
2024/01/09 01:19:18;;;;;;;4.07;1.50;;;6.80;15.40;;;;;;7394571;19;20286;-73
2024/01/09 01:21:44;;;;;;;3.92;1.45;;;6.80;16.00;;;;;;7402363;19;20475;-72
2024/01/09 01:24:10;;;;;;;3.70;1.60;;;6.80;15.80;;;;;;7396539;19;20645;-71
2024/01/09 01:26:37;;;;;;;3.45;1.25;;;6.70;15.50;;;;;;7399375;19;19918;-71
2024/01/09 01:29:03;;;;;;;;;;;6.70;14.90;;;;;;7395432;19;19978;-71
2024/01/09 01:31:28;;;;;;;4.80;1.88;;;6.70;14.10;;;;;;7399705;19;20971;-72
2024/01/09 01:33:54;;;;;;;5.88;1.50;;;6.70;13.50;;;;;;7402021;19;19939;-71
2024/01/09 01:36:21;;;;;;;3.42;1.48;;;6.70;13.20;;;;;;7399214;19;19921;-73
2024/01/09 01:38:47;;;;;;;4.43;1.50;;;6.70;13.40;;;;;;7394851;19;19907;-71
2024/01/09 01:41:12;;;;;;;3.85;1.50;;;6.70;13.50;;;;;;7397847;19;20382;-72
2024/01/09 01:43:38;;;;;;;3.38;1.35;;;6.80;12.30;;;;;;7391975;19;20231;-72
2024/01/09 01:46:05;;;;;;;5.15;1.58;;;6.80;11.50;;;;;;7375013;19;19978;-72
2024/01/09 01:48:35;;;;;;;3.58;1.00;;;6.80;10.90;;;;;;7402565;19;19923;-71
2024/01/09 01:51:02;;;;;;;3.10;1.30;;;6.80;10.30;;;;;;7402315;19;19919;-71
2024/01/09 01:53:30;;;;;;;3.10;1.15;;;6.70;10.90;;;;;;7381851;19;20454;-72
2024/01/09 01:55:56;;;;;;;3.83;0.85;;;6.60;10.90;;;;;;7386136;19;19922;-71
2024/01/09 01:58:24;;;;;;;2.83;1.08;;;6.60;10.50;;;;;;7392798;19;19950;-73
2024/01/09 02:00:50;;;;;;;2.72;0.80;;;6.60;10.20;;;;;;7394328;19;19929;-72
2024/01/09 02:03:16;;;;;;;2.58;0.90;;;6.60;9.50;;;;;;7385027;19;19972;-72
2024/01/09 02:05:42;;;;;;;3.97;1.00;;;6.50;8.40;;;;;;7388383;19;19919;-72
2024/01/09 02:08:09;;;;;;;2.58;0.98;;;6.60;7.90;;;;;;7384811;19;19914;-74
2024/01/09 02:10:34;;;;;;;2.15;0.75;;;6.50;7.40;;;;;;7387913;19;20332;-72
2024/01/09 02:13:00;;;;;;;1.85;0.60;;;6.50;7.10;;;;;;7387923;19;19965;-73
2024/01/09 02:15:26;;;;;;;2.08;0.63;;;6.60;6.60;;;;;;7388133;19;19939;-74
2024/01/09 02:17:52;;;;;;;3.17;1.08;;;6.60;6.30;;;;;;7386060;19;19918;-74
2024/01/09 02:20:23;;;;;;;2.35;0.70;;;6.60;6.30;;;;;;7383528;19;19918;-73
2024/01/09 02:22:50;;;;;;;1.52;0.52;;;6.60;6.50;;;;;;7390080;19;19923;-72
2024/01/09 02:25:15;;;;;;;2.33;0.80;;;6.60;6.50;;;;;;7386322;19;19915;-73
2024/01/09 02:28:00;;;;;;;2.38;0.80;;;6.60;6.30;;;;;;7384903;19;19943;-72
2024/01/09 02:30:27;;;;;;;2.88;0.88;;;6.60;6.20;;;;;;7388166;19;19981;-73
2024/01/09 02:32:54;;;;;;;3.63;0.82;;;6.60;6.50;;;;;;7390545;19;19910;-73
2024/01/09 02:35:20;;;;;;;2.90;0.95;;;6.50;6.70;;;;;;7385993;19;20365;-74
2024/01/09 02:37:46;;;;;;;2.35;0.70;;;6.50;7.10;;;;;;7393650;19;19910;-73
2024/01/09 02:40:12;;;;;;;2.67;0.80;;;6.50;7.50;;;;;;7391710;19;19914;-73
2024/01/09 02:42:38;;;;;;;2.20;0.80;;;6.40;8.00;;;;;;7386495;19;20306;-72
2024/01/09 02:45:04;;;;;;;2.90;0.90;;;6.40;8.20;;;;;;7386360;19;19915;-72
2024/01/09 02:47:29;;;;;;;2.83;1.05;;;6.40;8.50;;;;;;7398987;19;19958;-73
2024/01/09 02:49:55;;;;;;;2.97;0.95;;;6.40;8.20;;;;;;7398520;19;20327;-72
2024/01/09 02:52:21;;;;;;;3.67;1.05;;;6.50;8.30;;;;;;7397305;19;19942;-72
2024/01/09 02:54:47;;;;;;;3.72;1.00;;;6.50;8.40;;;;;;7396327;19;20007;-73
2024/01/09 02:57:13;;;;;;;2.15;0.77;;;6.50;8.10;;;;;;7398193;19;19921;-73
2024/01/09 02:59:38;;;;;;;2.45;0.80;;;6.60;7.90;;;;;;7394442;19;19922;-73
2024/01/09 03:02:05;;;;;;;2.55;0.70;;;6.50;7.40;;;;;;7395781;19;19918;-73
2024/01/09 03:04:31;;;;;;;2.17;0.75;;;6.60;7.50;;;;;;7394336;19;19913;-72
2024/01/09 03:06:57;;;;;;;1.98;0.77;;;6.50;7.50;;;;;;7397019;19;19996;-72
2024/01/09 03:09:22;;;;;;;3.45;0.80;;;6.60;7.20;;;;;;7395522;19;20669;-73
2024/01/09 03:11:48;;;;;;;3.85;1.20;;;6.60;6.90;;;;;;7398255;19;19919;-72
2024/01/09 03:14:15;;;;;;;1.92;0.73;;;6.60;7.00;;;;;;7397024;19;19919;-72
2024/01/09 03:16:41;;;;;;;2.72;0.85;;;6.70;6.80;;;;;;7397339;19;20251;-72
2024/01/09 03:19:06;;;;;;;3.03;0.82;;;6.80;6.20;;;;;;7396225;19;19919;-72
2024/01/09 03:21:32;;;;;;;2.75;1.00;;;6.80;5.70;;;;;;7398077;19;20440;-72
2024/01/09 03:23:58;;;;;;;2.58;0.77;;;6.80;5.40;;;;;;7393769;19;19922;-72
2024/01/09 03:26:24;;;;;;;2.60;0.80;;;6.80;5.30;;;;;;7395060;19;20275;-71
2024/01/09 03:28:49;;;;;;;2.78;0.80;;;6.90;5.30;;;;;;7398663;19;19921;-72
2024/01/09 03:31:22;;;;;;;3.45;0.70;;;6.80;5.50;;;;;;7396255;19;19915;-72
2024/01/09 03:33:48;;;;;;;3.50;0.85;;;6.80;5.60;;;;;;7395415;19;19946;-72
2024/01/09 03:36:14;;;;;;;2.13;0.77;;;6.90;5.30;;;;;;7396328;19;19922;-72
2024/01/09 03:38:45;;;;;;;3.25;0.70;;;6.90;5.00;;;;;;7398679;19;19926;-72
2024/01/09 03:41:11;;;;;;;2.03;0.73;;;6.90;4.80;;;;;;7396644;19;20590;-72
2024/01/09 03:43:37;;;;;;;2.53;0.60;;;6.90;4.60;;;;;;7396236;19;19926;-73
2024/01/09 03:46:03;;;;;;;2.42;0.70;;;6.90;4.60;;;;;;7394843;19;19935;-73
2024/01/09 03:48:29;;;;;;;2.40;0.85;;;6.80;4.20;;;;;;7392842;19;20314;-72
2024/01/09 03:50:55;;;;;;;2.83;0.90;;;6.80;4.20;;;;;;7396623;19;19942;-73
2024/01/09 03:53:21;;;;;;;2.78;0.82;;;6.90;4.10;;;;;;7399772;19;20279;-74
2024/01/09 03:55:46;;;;;;;2.92;0.90;;;6.90;4.00;;;;;;7403397;19;19933;-73
2024/01/09 03:58:12;;;;;;;2.45;1.05;;;7.00;4.30;;;;;;7399678;19;19926;-73
2024/01/09 04:00:38;;;;;;;5.90;1.00;;;7.00;3.80;;;;;;7402934;19;20041;-73
2024/01/09 04:03:05;;;;;;;2.80;1.05;;;7.00;3.90;;;;;;7399589;19;20023;-72
2024/01/09 04:05:31;;;;;;;1.88;0.77;;;7.00;4.00;;;;;;7402598;19;19978;-72
2024/01/09 04:07:57;;;;;;;2.20;0.80;;;7.00;4.20;;;;;;7404329;19;19949;-72
2024/01/09 04:10:23;;;;;;;3.67;0.93;;;7.10;4.10;;;;;;7401124;19;20486;-72
2024/01/09 04:12:49;;;;;;;5.22;1.02;;;7.10;4.10;;;;;;7404906;19;19934;-71
2024/01/09 04:15:15;;;;;;;3.72;1.05;;;7.10;4.50;;;;;;7403994;19;20155;-73
2024/01/09 04:17:41;;;;;;;3.40;0.90;;;7.10;4.40;;;;;;7405324;19;19945;-72
2024/01/09 04:20:11;;;;;;;2.85;0.93;;;7.10;4.60;;;;;;7402776;19;20399;-73
2024/01/09 04:22:36;;;;;;;4.05;1.00;;;7.10;4.70;;;;;;7403045;19;19929;-72
2024/01/09 04:25:02;;;;;;;2.92;0.80;;;7.00;4.80;;;;;;7402903;19;20259;-72
2024/01/09 04:27:28;;;;;;;4.15;1.20;;;7.00;5.00;;;;;;7403793;19;19919;-73
2024/01/09 04:29:54;;;;;;;2.55;1.15;;;7.00;5.10;;;;;;7400506;19;19910;-73
2024/01/09 04:32:19;;;;;;;3.13;1.00;;;7.00;5.20;;;;;;7401020;19;19919;-72
2024/01/09 04:34:45;;;;;;;3.13;1.20;;;7.00;5.30;;;;;;7402102;19;19911;-72
2024/01/09 04:37:11;;;;;;;2.90;1.10;;;7.00;5.20;;;;;;7399562;19;19914;-72
2024/01/09 04:39:37;;;;;;;2.22;0.75;;;6.90;5.30;;;;;;7401158;19;19934;-71
2024/01/09 04:42:03;;;;;;;2.92;0.90;;;6.90;5.30;;;;;;7402300;19;19947;-72
2024/01/09 04:44:28;;;;;;;2.20;0.70;;;6.80;5.40;;;;;;7402808;19;19918;-73
2024/01/09 04:46:54;;;;;;;2.33;0.90;;;6.80;5.40;;;;;;7401483;19;19914;-73
2024/01/09 04:49:20;;;;;;;2.85;0.88;;;6.80;5.50;;;;;;7400861;19;20356;-72
2024/01/09 04:51:46;;;;;;;2.75;1.10;;;6.80;5.50;;;;;;7400941;19;20019;-72
2024/01/09 04:54:12;;;;;;;2.20;0.85;;;6.80;5.70;;;;;;7401355;19;19915;-72
2024/01/09 04:56:38;;;;;;;2.70;1.00;;;6.70;5.80;;;;;;7401668;19;19931;-73
2024/01/09 04:59:03;;;;;;;3.20;1.10;;;6.70;6.10;;;;;;7399439;19;19918;-73
2024/01/09 05:01:29;;;;;;;3.25;1.05;;;6.70;6.30;;;;;;7404989;19;20386;-73
2024/01/09 05:03:55;;;;;;;2.47;0.82;;;6.70;6.70;;;;;;7404892;19;19918;-72
2024/01/09 05:06:22;;;;;;;3.85;1.20;;;6.70;6.80;;;;;;7400523;19;19927;-72
2024/01/09 05:08:47;;;;;;;2.45;0.90;;;6.70;6.80;;;;;;7405018;19;19950;-73
2024/01/09 05:11:13;;;;;;;3.72;1.05;;;6.70;6.70;;;;;;7400250;19;19918;-73
2024/01/09 05:13:39;;;;;;;2.58;0.82;;;6.60;6.80;;;;;;7398932;19;19926;-73
2024/01/09 05:16:05;;;;;;;3.53;1.30;;;6.60;6.70;;;;;;7398057;19;19981;-72
2024/01/09 05:18:31;;;;;;;2.25;0.73;;;6.60;6.80;;;;;;7400210;19;19926;-73
2024/01/09 05:20:57;;;;;;;3.10;0.98;;;6.60;6.90;;;;;;7401648;19;19925;-73
2024/01/09 05:23:23;;;;;;;3.38;0.90;;;6.50;7.00;;;;;;7400219;19;19919;-73
2024/01/09 05:25:50;;;;;;;3.22;1.02;;;6.60;7.00;;;;;;7401788;19;19910;-73
2024/01/09 05:28:16;;;;;;;4.47;1.00;;;6.50;7.20;;;;;;7400274;19;19919;-73
2024/01/09 05:30:42;;;;;;;2.90;1.05;;;6.50;7.30;;;;;;7398154;19;19918;-73
2024/01/09 05:33:08;;;;;;;3.20;1.08;;;6.50;7.30;;;;;;7401471;19;19922;-72
2024/01/09 05:35:34;;;;;;;4.03;0.90;;;6.50;7.60;;;;;;7402239;19;20019;-73
2024/01/09 05:37:59;;;;;;;4.88;1.08;;;6.50;7.90;;;;;;7401108;19;19930;-73
2024/01/09 05:40:26;;;;;;;3.47;1.23;;;6.50;7.90;;;;;;7395708;19;19923;-73
2024/01/09 05:42:52;;;;;;;4.95;1.25;;;6.50;8.40;;;;;;7400200;19;19934;-73
2024/01/09 05:45:18;;;;;;;3.00;1.05;;;6.50;9.10;;;;;;7401238;19;20571;-73
2024/01/09 05:47:43;;;;;;;3.60;1.00;;;6.50;9.60;;;;;;7401380;19;20018;-72
2024/01/09 05:50:09;;;;;;;4.85;1.27;;;6.40;10.50;;;;;;7398970;19;20355;-73
2024/01/09 05:52:36;;;;;;;3.08;1.30;;;6.40;11.00;;;;;;7399833;19;19922;-73
2024/01/09 05:55:06;;;;;;;3.40;1.10;;;6.40;12.30;;;;;;7401664;19;20031;-72
2024/01/09 05:57:31;;;;;;;2.75;1.02;;;6.40;12.10;;;;;;7399607;19;19922;-73
2024/01/09 05:59:57;;;;;;;4.05;1.58;;;6.40;11.80;;;;;;7402203;19;19926;-74
2024/01/09 06:02:24;;;;;;;3.97;1.30;;;6.60;11.60;;;;;;7396036;19;20364;-72
2024/01/09 06:04:50;;;;;;;3.45;1.08;;;6.50;10.50;;;;;;7400022;19;19930;-73
2024/01/09 06:07:17;;;;;;;4.43;1.13;;;6.40;10.70;;;;;;7398303;19;19926;-72
2024/01/09 06:09:43;;;;;;;3.85;1.23;;;6.40;11.20;;;;;;7402413;19;19939;-73
2024/01/09 06:12:09;;;;;;;3.10;1.20;;;6.40;11.20;;;;;;7397525;19;19918;-75
2024/01/09 06:14:35;;;;;;;3.25;1.13;;;6.30;11.50;;;;;;7401290;19;19982;-73
2024/01/09 06:17:01;;;;;;;3.78;0.95;;;6.30;11.40;;;;;;7398013;19;19931;-73
2024/01/09 06:19:26;;;;;;;2.83;1.00;;;6.30;11.60;;;;;;7401721;19;19928;-73
2024/01/09 06:21:52;;;;;;;5.93;1.15;;;6.20;11.60;;;;;;7398056;19;19914;-74
2024/01/09 06:24:18;;;;;;;5.05;1.30;;;6.30;12.50;;;;;;7399557;19;19918;-73
2024/01/09 06:26:44;;;;;;;4.68;1.27;;;6.30;12.20;;;;;;7398123;19;19925;-73
2024/01/09 06:29:10;;;;;;;3.95;1.10;;;6.40;13.00;;;;;;7399566;19;19963;-74
2024/01/09 06:31:36;;;;;;;3.53;0.98;;;6.40;13.40;;;;;;7398077;19;19978;-73
2024/01/09 06:34:03;;;;;;;3.88;1.52;;;6.40;14.40;;;;;;7403380;19;19914;-73
2024/01/09 06:36:28;;;;;;;4.75;1.48;;;6.40;14.50;;;;;;7399261;19;20354;-73
2024/01/09 06:38:54;;;;;;;4.55;1.58;;;6.60;15.60;;;;;;7402816;19;19923;-73
2024/01/09 06:41:20;;;;;;;5.40;1.67;;;6.60;16.70;;;;;;7396965;19;19977;-73
2024/01/09 06:43:46;;;;;;;6.47;2.75;;;6.60;17.10;;;;;;7401176;19;19934;-74
2024/01/09 06:46:11;;;;;;;4.60;1.60;;;6.70;19.20;;;;;;7396156;19;19926;-72
2024/01/09 06:48:37;;;;;;;5.97;1.65;;;6.80;20.80;;;;;;7402636;19;20339;-72
2024/01/09 06:51:03;;;;;;;5.80;2.08;;;6.90;22.30;;;;;;7396383;19;19914;-72
2024/01/09 06:53:29;;;;;;;4.75;1.40;;;7.00;23.90;;;;;;7406444;19;19950;-72
2024/01/09 06:55:55;;;;;;;5.63;1.55;;;7.00;24.40;;;;;;7396359;19;19918;-74
2024/01/09 06:58:21;;;;;;;4.65;1.70;;;7.20;25.70;;;;;;7397279;19;19978;-72
2024/01/09 07:00:46;;;;;;;5.07;1.40;;;7.20;25.80;;;;;;7395388;19;20291;-73
2024/01/09 07:03:12;;;;;;;3.65;1.25;;;7.30;26.00;;;;;;7396291;19;19918;-72
2024/01/09 07:05:38;;;;;;;4.82;2.03;;;7.30;26.10;;;;;;7399717;19;20259;-74
2024/01/09 07:08:05;;;;;;;5.25;1.40;;;7.40;26.80;;;;;;7400707;19;20212;-73
2024/01/09 07:10:31;;;;;;;5.57;1.70;;;7.40;26.80;;;;;;7397473;19;20300;-72
2024/01/09 07:12:57;;;;;;;6.38;1.65;;;7.40;27.20;;;;;;7378548;19;19915;-73
2024/01/09 07:15:22;;;;;;;5.13;1.48;;;7.50;28.00;;;;;;7395660;19;19942;-73
2024/01/09 07:17:48;;;;;;;4.95;1.80;;;7.50;28.10;;;;;;7401460;19;20330;-72
2024/01/09 07:20:14;;;;;;;4.13;1.33;;;7.60;29.10;;;;;;7388350;19;19937;-73
2024/01/09 07:22:43;;;;;;;4.97;1.30;;;7.60;29.80;;;;;;7383312;19;19915;-73
2024/01/09 07:25:09;;;;;;;3.80;1.38;;;7.60;31.60;;;;;;7366480;19;20212;-73
2024/01/09 07:27:35;;;;;;;3.78;1.30;;;7.70;33.00;;;;;;7385239;19;20581;-73
2024/01/09 07:30:02;;;;;;;5.35;1.70;;;7.70;34.70;;;;;;7404671;19;19986;-73
2024/01/09 07:32:28;;;;;;;6.10;1.58;;;7.70;35.30;;;;;;7403520;19;19918;-73
2024/01/09 07:34:54;;;;;;;5.57;1.77;;;7.70;34.40;;;;;;7404796;19;19910;-74
2024/01/09 07:37:20;;;;;;;5.70;1.60;;;7.70;33.60;;;;;;7400955;19;19918;-73
2024/01/09 07:39:45;;;;;;;7.13;1.63;;;7.80;33.30;;;;;;7400256;19;19915;-73
2024/01/09 07:42:14;;;;;;;4.32;1.50;;;7.80;32.80;;;;;;7399204;19;19921;-73
2024/01/09 07:44:40;;;;;;;4.88;1.55;;;7.80;32.10;;;;;;7399298;19;19915;-74
2024/01/09 07:47:07;;;;;;;4.25;1.35;;;7.90;31.80;;;;;;7398855;19;19958;-74
2024/01/09 07:49:34;;;;;;;3.90;1.33;;;7.90;31.60;;;;;;7399799;19;19919;-76
2024/01/09 07:51:59;;;;;;;4.00;1.23;;;8.00;32.10;;;;;;7397028;19;19918;-73
2024/01/09 07:54:25;;;;;;;6.88;1.52;;;8.00;32.50;;;;;;7387740;19;20749;-73
2024/01/09 07:56:51;;;;;;;4.55;2.13;;;8.10;32.50;;;;;;7395017;19;19919;-75
2024/01/09 07:59:17;;;;;;;4.07;1.30;;;8.10;32.50;;;;;;7394476;19;19974;-74
2024/01/09 08:01:43;;;;;;;4.53;1.50;;;8.10;32.20;;;;;;7393520;19;19921;-74
2024/01/09 08:04:10;;;;;;;6.28;1.48;;;8.20;32.00;;;;;;7403680;19;20252;-74
2024/01/09 08:06:36;;;;;;;4.10;1.13;;;8.30;31.60;;;;;;7396490;19;19926;-73
2024/01/09 08:09:02;;;;;;;4.28;1.23;;;8.40;30.10;;;;;;7388457;19;19943;-75
2024/01/09 08:11:28;;;;;;;3.05;1.02;;;8.40;29.60;;;;;;7379954;19;19923;-74
2024/01/09 08:13:53;;;;;;;5.63;1.35;;;8.50;29.00;;;;;;7394927;19;19918;-75
2024/01/09 08:16:19;;;;;;;4.90;1.58;;;8.50;27.60;;;;;;7399931;19;20059;-73
2024/01/09 08:18:45;;;;;;;7.13;1.48;;;8.60;25.00;;;;;;7402354;19;19926;-72
2024/01/09 08:21:12;;;;;;;3.95;1.30;;;8.60;23.40;;;;;;7401081;19;19910;-73
2024/01/09 08:23:37;;;;;;;6.95;1.40;;;8.70;22.20;;;;;;7403204;19;19923;-73
2024/01/09 08:26:03;;;;;;;6.30;1.35;;;8.70;21.50;;;;;;7401540;19;20327;-73
2024/01/09 08:28:29;;;;;;;13.02;1.67;;;8.80;21.10;;;;;;7402133;19;19921;-73
2024/01/09 08:30:55;;;;;;;4.63;1.27;;;9.00;19.70;;;;;;7402687;19;19917;-73
2024/01/09 08:33:20;;;;;;;4.00;1.30;;;9.40;18.80;;;;;;7399284;19;19935;-75
2024/01/09 08:35:50;;;;;;;6.70;1.45;;;10.30;16.80;;;;;;7402037;19;19939;-75
2024/01/09 08:38:17;;;;;;;4.75;1.58;;;11.10;12.40;;;;;;7400452;19;19922;-73
2024/01/09 08:40:44;;;;;;;4.60;1.60;;;11.80;10.10;;;;;;7405154;19;19922;-73
2024/01/09 08:43:10;;;;;;;4.78;1.50;;;11.60;9.10;;;;;;7402941;19;19926;-73
2024/01/09 08:45:36;;;;;;;4.72;1.48;;;11.70;9.10;;;;;;7401083;19;19919;-73
2024/01/09 08:48:02;;;;;;;5.05;1.63;;;11.50;8.40;;;;;;7400867;19;19923;-72
2024/01/09 08:50:28;;;;;;;4.85;1.38;;;11.50;9.00;;;;;;7401469;19;19921;-74
2024/01/09 08:52:54;;;;;;;6.15;1.65;;;11.30;9.20;;;;;;7400747;19;20702;-74
2024/01/09 08:55:20;;;;;;;4.60;1.50;;;11.10;8.60;;;;;;7400240;19;19935;-73
2024/01/09 08:57:46;;;;;;;6.07;1.33;;;10.90;8.30;;;;;;7399515;19;19922;-73
2024/01/09 09:00:13;;;;;;;4.30;1.63;;;11.80;7.60;;;;;;7398615;19;19950;-74
2024/01/09 09:02:39;;;;;;;3.47;1.50;;;12.10;5.70;;;;;;7396996;19;20192;-73
2024/01/09 09:05:05;;;;;;;6.28;2.00;;;11.90;4.60;;;;;;7397396;19;19918;-73
2024/01/09 09:07:30;;;;;;;3.67;1.33;;;11.70;4.70;;;;;;7397217;19;19974;-74
2024/01/09 09:09:57;;;;;;;4.05;1.77;;;11.40;5.10;;;;;;7401766;19;20304;-74
2024/01/09 09:12:23;;;;;;;6.75;1.83;;;11.30;5.70;;;;;;7399666;19;19943;-73
2024/01/09 09:14:49;;;;;;;4.28;1.50;;;11.20;6.30;;;;;;7401232;19;19919;-72
2024/01/09 09:17:16;;;;;;;3.75;1.30;;;11.10;6.40;;;;;;7399656;19;19919;-73
2024/01/09 09:19:42;;;;;;;4.43;1.58;;;11.10;6.80;;;;;;7408284;19;19933;-74
2024/01/09 09:22:08;;;;;;;5.93;1.45;;;11.10;8.20;;;;;;7399461;19;19922;-73
2024/01/09 09:24:34;;;;;;;6.30;2.05;;;11.20;8.40;;;;;;7399554;19;19921;-73
2024/01/09 09:26:59;;;;;;;6.18;1.70;;;11.30;9.20;;;;;;7401654;19;19925;-74
2024/01/09 09:29:25;;;;;;;6.13;1.50;;;11.30;9.40;;;;;;7400613;19;19986;-74
2024/01/09 09:31:51;;;;;;;3.42;1.45;;;11.40;10.20;;;;;;7402091;19;19915;-74
2024/01/09 09:34:17;;;;;;;7.35;1.73;;;11.60;11.60;;;;;;7398182;19;19933;-76
2024/01/09 09:36:43;;;;;;;5.63;1.83;;;11.80;12.00;;;;;;7402032;19;19922;-73
2024/01/09 09:39:10;;;;;;;5.78;1.25;;;12.20;14.10;;;;;;7397897;19;19914;-75
2024/01/09 09:41:36;;;;;;;6.25;1.98;;;12.70;14.30;;;;;;7399577;19;19923;-74
2024/01/09 09:44:03;;;;;;;8.32;1.77;;;13.10;14.50;;;;;;7400511;19;19974;-73
2024/01/09 09:46:31;;;;;;;4.53;1.60;;;13.30;14.70;;;;;;7400501;19;20243;-75
2024/01/09 09:48:57;;;;;;;6.55;1.90;;;13.50;14.30;;;;;;7401399;19;19922;-74
2024/01/09 09:51:24;;;;;;;5.68;1.85;;;13.60;14.00;;;;;;7397464;19;20371;-74
2024/01/09 09:53:52;;;;;;;4.90;1.75;;;13.80;14.70;;;;;;7402187;19;20583;-74
2024/01/09 09:56:18;;;;;;;5.53;1.73;;;13.80;15.30;;;;;;7399545;19;19942;-74
2024/01/09 09:58:44;;;;;;;6.80;2.15;;;13.80;14.80;;;;;;7403961;19;19915;-74
2024/01/09 10:01:13;;;;;;;7.35;1.90;;;13.90;13.60;;;;;;7397368;19;19929;-74
2024/01/09 10:04:02;;;;;;;5.18;1.83;;;13.80;13.10;;;;;;7396770;19;19919;-74
2024/01/09 10:06:28;;;;;;;6.60;1.63;;;14.10;14.10;;;;;;7396785;19;19974;-73
2024/01/09 10:08:56;;;;;;;5.50;2.65;;;14.20;14.50;;;;;;7401029;19;20564;-74
2024/01/09 10:11:23;;;;;;;7.25;2.15;;;14.40;13.60;;;;;;7399873;19;19930;-73
2024/01/09 10:13:48;;;;;;;;;;;14.40;14.20;;;;;;7399490;19;19914;-74
2024/01/09 10:16:14;;;;;;;4.80;1.73;;;14.40;13.20;;;;;;7396758;19;19947;-73
2024/01/09 10:18:40;;;;;;;4.85;1.83;;;14.80;11.40;;;;;;7393504;19;20006;-73
2024/01/09 10:21:07;;;;;;;6.25;1.90;;;14.80;11.20;;;;;;7395849;19;20827;-74
2024/01/09 10:23:36;;;;;;;4.07;1.85;;;15.00;11.30;;;;;;7395494;19;20022;-75
2024/01/09 10:26:02;;;;;;;5.95;2.35;;;15.10;10.30;;;;;;7401851;19;19919;-74
2024/01/09 10:28:28;;;;;;;;;;;15.30;10.00;;;;;;7400522;19;20367;-74
2024/01/09 10:30:54;;;;;;;5.55;2.30;;;15.20;10.50;;;;;;7396647;19;19932;-74
2024/01/09 10:33:20;;;;;;;6.63;2.50;;;15.20;9.30;;;;;;7397514;19;19930;-75
2024/01/09 10:35:45;;;;;;;3.97;2.17;;;15.20;8.70;;;;;;7399200;19;19927;-74
2024/01/09 10:38:11;;;;;;;6.38;2.47;;;15.20;9.00;;;;;;7394319;19;19926;-74
2024/01/09 10:40:37;;;;;;;7.93;2.65;;;15.10;9.20;;;;;;7398926;19;19930;-74
2024/01/09 10:43:03;;;;;;;5.72;2.55;;;15.40;10.10;;;;;;7396487;19;19926;-73
2024/01/09 10:45:32;;;;;;;5.75;2.40;;;15.60;10.40;;;;;;7395303;19;19915;-74
2024/01/09 10:47:59;;;;;;;5.50;2.38;;;15.70;10.00;;;;;;7396066;19;19922;-75
2024/01/09 10:50:25;;;;;;;6.35;2.80;;;15.70;11.20;;;;;;7393568;19;20291;-74
2024/01/09 10:52:52;;;;;;;5.25;2.25;;;16.00;10.50;;;;;;7390333;19;19911;-74
2024/01/09 10:55:22;;;;;;;5.18;2.67;;;16.30;9.90;;;;;;7391156;19;19951;-75
2024/01/09 10:57:49;;;;;;;6.45;2.33;;;16.40;9.80;;;;;;7394774;19;19925;-74
2024/01/09 11:00:16;;;;;;;9.10;3.15;;;16.70;8.10;;;;;;7392659;19;19923;-74
2024/01/09 11:02:42;;;;;;;;;;;16.80;8.10;;;;;;7404150;19;19988;-74
2024/01/09 11:05:10;;;;;;;7.80;3.47;;;17.10;8.70;;;;;;7399411;19;19939;-74
2024/01/09 11:07:37;;;;;;;8.43;3.00;;;17.10;8.50;;;;;;7399632;19;19922;-74
2024/01/09 11:10:04;;;;;;;10.23;3.22;;;17.20;8.50;;;;;;7398918;19;19927;-74
2024/01/09 11:12:34;;;;;;;11.73;3.92;;;17.50;7.90;;;;;;7403107;19;19930;-74
2024/01/09 11:15:09;;;;;;;7.80;3.60;;;17.80;5.90;;;;;;7402829;19;19914;-74
2024/01/09 11:17:37;;;;;;;27.50;5.00;;;18.10;5.00;;;;;;7401781;19;19999;-74
2024/01/09 11:20:07;;;;;;;26.85;6.05;;;18.40;3.80;;;;;;7399592;19;19910;-75
2024/01/09 11:22:37;;;;;;;41.75;8.38;;;19.00;2.70;;;;;;7400589;19;19919;-74
2024/01/09 11:25:15;;;;;;;32.65;7.40;;;19.30;2.20;;;;;;7400552;19;19936;-75
2024/01/09 11:27:46;;;;;;;48.53;8.10;;;19.60;1.00;;;;;;7398272;19;19930;-75
2024/01/09 11:30:15;;;;;;;18.50;4.78;;;19.40;1.00;;;;;;7397182;19;20001;-75
2024/01/09 11:32:41;;;;;;;17.15;4.40;;;19.80;1.00;;;;;;7397230;19;19919;-74
2024/01/09 11:35:18;;;;;;;9.43;3.80;;;20.00;1.00;;;;;;7402363;19;21002;-76
2024/01/09 11:37:46;;;;;;;8.50;3.47;;;19.80;1.00;;;;;;7399309;19;20454;-74
2024/01/09 11:40:13;;;;;;;7.95;3.28;;;20.10;1.00;;;;;;7399621;19;19918;-74
2024/01/09 11:42:42;;;;;;;7.95;3.17;;;19.30;1.00;;;;;;7401603;19;19915;-73
2024/01/09 11:45:09;;;;;;;6.80;3.28;;;19.50;1.00;;;;;;7400454;19;19930;-74
2024/01/09 11:47:42;;;;;;;7.03;3.42;;;20.00;1.00;;;;;;7404543;19;19918;-74
2024/01/09 11:50:10;;;;;;;9.55;3.53;;;19.90;1.00;;;;;;7402644;19;19930;-74
2024/01/09 11:52:41;;;;;;;10.60;3.33;;;20.40;1.00;;;;;;7403680;19;19922;-74
2024/01/09 11:55:09;;;;;;;8.13;3.70;;;20.20;1.00;;;;;;7402103;19;19978;-74
2024/01/09 11:57:35;;;;;;;12.88;3.53;;;20.60;1.00;;;;;;7403095;19;19923;-74
2024/01/09 12:00:06;;;;;;;14.95;7.57;;;20.20;1.00;;;;;;7403379;19;19923;-74
2024/01/09 12:02:34;;;;;;;9.77;4.00;;;20.40;1.00;;;;;;7400034;19;20372;-75
2024/01/09 12:05:09;;;;;;;7.53;3.53;;;21.00;1.00;;;;;;7401904;19;19915;-74
2024/01/09 12:07:40;;;;;;;8.10;3.53;;;21.10;1.00;;;;;;7398724;19;19906;-74
2024/01/09 12:10:10;;;;;;;7.03;3.28;;;21.00;1.00;;;;;;7401965;19;19978;-74
2024/01/09 12:12:36;;;;;;;7.68;3.20;;;21.10;1.00;;;;;;7399380;19;20243;-73
2024/01/09 12:15:02;;;;;;;8.73;3.05;;;20.10;1.00;;;;;;7400868;19;19918;-74
2024/01/09 12:17:41;;;;;;;8.70;3.28;;;18.10;1.80;;;;;;7399486;19;20433;-74
2024/01/09 12:20:10;;;;;;;9.50;3.85;;;16.40;5.30;;;;;;7400931;19;19919;-74
2024/01/09 12:22:36;;;;;;;13.18;3.97;;;16.20;7.80;;;;;;7399979;19;19938;-74
2024/01/09 12:25:03;;;;;;;8.98;3.38;;;15.90;9.40;;;;;;7401918;19;19936;-73
2024/01/09 12:27:31;;;;;;;15.80;4.88;;;15.70;10.60;;;;;;7398265;19;19922;-74
2024/01/09 12:29:56;;;;;;;12.98;4.00;;;15.60;11.00;;;;;;7400470;19;19919;-74
2024/01/09 12:32:23;;;;;;;14.38;3.65;;;15.10;12.20;;;;;;7400223;19;19941;-73
2024/01/09 12:34:50;;;;;;;12.45;4.18;;;14.70;14.40;;;;;;7405064;19;19958;-75
2024/01/09 12:37:16;;;;;;;16.67;4.30;;;14.50;15.10;;;;;;7401632;19;20339;-73
2024/01/09 12:39:42;;;;;;;8.27;3.50;;;14.30;15.60;;;;;;7400168;19;19926;-75
2024/01/09 12:42:12;;;;;;;11.38;3.70;;;14.30;16.00;;;;;;7397430;19;20359;-73
2024/01/09 12:44:43;;;;;;;14.90;4.65;;;14.30;16.40;;;;;;7400286;19;19934;-74
2024/01/09 12:47:14;;;;;;;11.18;3.85;;;14.40;16.10;;;;;;7401391;19;19910;-73
2024/01/09 12:49:54;;;;;;;8.38;3.22;;;14.20;16.50;;;;;;7400337;19;19919;-75
2024/01/09 12:52:20;;;;;;;7.45;3.15;;;14.30;17.30;;;;;;7398626;19;19914;-73
2024/01/09 12:54:47;;;;;;;9.38;3.80;;;14.50;17.50;;;;;;7395226;19;20075;-74